createdAt,value
2019-05-23T00:00:09.335Z,4.20
2019-05-23T00:05:06.389Z,3.85
2019-05-23T00:10:02.712Z,3.20
2019-05-23T00:15:10.677Z,4.30
2019-05-23T00:20:07.329Z,3.90
2019-05-23T00:25:01.814Z,4.60
2019-05-23T00:29:58.053Z,4.30
2019-05-23T00:34:54.712Z,4.50
2019-05-23T00:39:49.333Z,3.87
2019-05-23T00:44:52.368Z,4.12
2019-05-23T00:49:47.163Z,4.33
2019-05-23T00:54:48.358Z,4.33
2019-05-23T00:59:49.068Z,4.80
2019-05-23T01:04:42.782Z,4.90
2019-05-23T01:09:38.322Z,4.42
2019-05-23T01:19:46.997Z,4.40
2019-05-23T01:24:47.756Z,4.37
2019-05-23T01:29:49.635Z,4.75
2019-05-23T01:34:42.147Z,5.33
2019-05-23T01:39:35.865Z,4.65
2019-05-23T01:44:31.175Z,4.62
2019-05-23T01:49:27.420Z,5.30
2019-05-23T01:54:24.905Z,4.70
2019-05-23T01:59:20.312Z,5.40
2019-05-23T02:04:16.388Z,5.87
2019-05-23T02:09:11.559Z,4.75
2019-05-23T02:14:08.038Z,5.05
2019-05-23T02:19:03.988Z,6.33
2019-05-23T02:23:57.934Z,6.15
2019-05-23T02:28:52.857Z,6.15
2019-05-23T02:33:47.307Z,5.92
2019-05-23T02:38:54.365Z,6.95
2019-05-23T02:43:57.250Z,6.62
2019-05-23T02:49:00.952Z,6.72
2019-05-23T02:53:56.165Z,6.87
2019-05-23T02:58:59.536Z,6.70
2019-05-23T03:03:56.277Z,6.50
2019-05-23T03:08:52.691Z,6.85
2019-05-23T03:13:48.533Z,7.75
2019-05-23T03:18:44.589Z,8.23
2019-05-23T03:23:38.604Z,7.90
2019-05-23T03:28:43.559Z,6.75
2019-05-23T03:33:38.839Z,7.65
2019-05-23T03:38:40.348Z,8.75
2019-05-23T03:43:35.874Z,8.78
2019-05-23T03:48:29.525Z,7.97
2019-05-23T03:53:25.516Z,8.08
2019-05-23T03:58:20.786Z,8.70
2019-05-23T04:03:15.328Z,10.15
2019-05-23T04:08:10.958Z,10.00
2019-05-23T04:13:05.245Z,9.95
2019-05-23T04:17:59.158Z,10.38
2019-05-23T04:22:53.304Z,11.75
2019-05-23T04:27:47.285Z,12.00
2019-05-23T04:32:41.240Z,9.95
2019-05-23T04:37:35.133Z,9.68
2019-05-23T04:42:29.713Z,8.73
2019-05-23T04:47:24.425Z,9.43
2019-05-23T04:52:20.982Z,9.55
2019-05-23T04:57:16.450Z,8.90
2019-05-23T05:02:24.762Z,8.88
2019-05-23T05:07:06.409Z,8.90
2019-05-23T05:12:00.519Z,9.00
2019-05-23T05:16:56.987Z,8.28
2019-05-23T05:21:50.533Z,9.53
2019-05-23T05:26:44.158Z,9.93
2019-05-23T05:31:37.773Z,9.38
2019-05-23T05:36:32.708Z,9.13
2019-05-23T05:41:26.975Z,10.35
2019-05-23T05:46:27.513Z,10.28
2019-05-23T05:51:34.276Z,9.50
2019-05-23T05:56:28.105Z,8.63
2019-05-23T06:01:33.272Z,9.33
2019-05-23T06:06:29.266Z,7.75
2019-05-23T06:11:22.898Z,8.90
2019-05-23T06:16:17.286Z,8.28
2019-05-23T06:21:13.808Z,8.58
2019-05-23T06:26:09.731Z,7.53
2019-05-23T06:31:03.625Z,7.67
2019-05-23T06:35:57.175Z,8.33
2019-05-23T06:40:54.498Z,8.45
2019-05-23T06:45:51.128Z,7.62
2019-05-23T06:50:45.089Z,6.90
2019-05-23T06:55:38.717Z,7.03
2019-05-23T07:00:32.605Z,7.50
2019-05-23T07:05:32.626Z,6.90
2019-05-23T07:10:35.531Z,5.90
2019-05-23T07:15:29.648Z,5.47
2019-05-23T07:20:23.266Z,7.10
2019-05-23T07:25:17.315Z,5.65
2019-05-23T07:30:13.986Z,5.92
2019-05-23T07:35:07.680Z,4.67
2019-05-23T07:40:01.241Z,5.12
2019-05-23T07:44:56.690Z,4.45
2019-05-23T07:49:56.797Z,5.15
2019-05-23T07:54:58.070Z,4.53
2019-05-23T07:59:51.948Z,4.17
2019-05-23T08:04:46.085Z,3.95
2019-05-23T08:09:40.628Z,4.62
2019-05-23T08:14:34.730Z,4.40
2019-05-23T08:19:28.549Z,4.30
2019-05-23T08:24:22.277Z,3.95
2019-05-23T08:29:25.847Z,4.28
2019-05-23T08:34:17.868Z,4.22
2019-05-23T08:39:22.852Z,3.80
2019-05-23T08:44:17.767Z,3.60
2019-05-23T08:49:12.956Z,3.67
2019-05-23T08:54:06.640Z,2.72
2019-05-23T08:59:00.557Z,3.15
2019-05-23T09:03:55.755Z,2.33
2019-05-23T09:08:51.117Z,2.22
2019-05-23T09:13:45.891Z,2.27
2019-05-23T09:18:39.441Z,2.90
2019-05-23T09:23:39.238Z,2.52
2019-05-23T09:28:32.954Z,2.27
2019-05-23T09:33:32.537Z,2.08
2019-05-23T09:38:26.112Z,2.20
2019-05-23T09:43:19.732Z,2.12
2019-05-23T09:48:13.291Z,2.52
2019-05-23T09:53:07.240Z,2.50
2019-05-23T09:58:01.693Z,3.30
2019-05-23T10:02:58.166Z,2.72
2019-05-23T10:07:54.466Z,3.10
2019-05-23T10:12:51.061Z,2.60
2019-05-23T10:17:44.669Z,2.87
2019-05-23T10:22:38.236Z,3.12
2019-05-23T10:27:31.861Z,3.52
2019-05-23T10:32:26.559Z,2.90
2019-05-23T10:37:22.392Z,3.20
2019-05-23T10:42:16.015Z,3.22
2019-05-23T10:47:09.928Z,3.67
2019-05-23T10:52:03.740Z,4.55
2019-05-23T10:57:00.436Z,3.12
2019-05-23T11:01:55.827Z,3.90
2019-05-23T11:06:49.324Z,3.92
2019-05-23T11:11:43.198Z,3.75
2019-05-23T11:16:36.931Z,3.95
2019-05-23T11:21:34.196Z,4.65
2019-05-23T11:26:27.910Z,3.60
2019-05-23T11:31:22.544Z,4.35
2019-05-23T11:36:33.725Z,4.72
2019-05-23T11:41:11.873Z,3.43
2019-05-23T11:46:24.452Z,3.40
2019-05-23T11:51:19.574Z,3.87
2019-05-23T11:56:13.280Z,3.55
2019-05-23T12:01:20.495Z,3.98
2019-05-23T12:06:08.217Z,4.47
2019-05-23T12:11:01.797Z,3.80
2019-05-23T12:16:49.886Z,3.15
2019-05-23T12:21:44.424Z,3.83
2019-05-23T12:26:38.048Z,3.58
2019-05-23T12:31:31.722Z,2.90
2019-05-23T12:36:25.432Z,3.77
2019-05-23T12:41:19.002Z,3.92
2019-05-23T12:46:12.577Z,4.05
2019-05-23T12:51:07.987Z,4.72
2019-05-23T12:56:02.053Z,4.70
2019-05-23T13:00:57.606Z,4.78
2019-05-23T13:05:51.838Z,4.15
2019-05-23T13:10:45.557Z,4.75
2019-05-23T13:15:39.150Z,5.00
2019-05-23T13:20:33.009Z,5.03
2019-05-23T13:25:27.569Z,5.50
2019-05-23T13:30:21.128Z,4.62
2019-05-23T13:35:15.137Z,4.08
2019-05-23T13:40:10.244Z,3.52
2019-05-23T13:45:07.302Z,3.75
2019-05-23T13:50:01.188Z,4.25
2019-05-23T13:54:55.817Z,4.17
2019-05-23T13:59:49.456Z,3.87
2019-05-23T14:04:43.173Z,3.77
2019-05-23T14:09:37.201Z,3.60
2019-05-23T14:14:30.988Z,4.20
2019-05-23T14:19:29.318Z,3.55
2019-05-23T14:24:22.109Z,4.05
2019-05-23T14:29:15.735Z,5.03
2019-05-23T14:34:11.508Z,5.10
2019-05-23T14:39:09.002Z,5.15
2019-05-23T14:44:02.893Z,5.70
2019-05-23T14:49:08.154Z,4.05
2019-05-23T14:54:09.363Z,7.60
2019-05-23T14:59:03.137Z,6.10
2019-05-23T15:03:57.015Z,6.40
2019-05-23T15:08:56.248Z,6.22
2019-05-23T15:13:52.722Z,6.55
2019-05-23T15:18:46.261Z,5.70
2019-05-23T15:23:39.760Z,7.65
2019-05-23T15:28:33.379Z,7.83
2019-05-23T15:33:26.891Z,6.72
2019-05-23T15:38:22.669Z,7.17
2019-05-23T15:43:16.678Z,8.63
2019-05-23T15:48:10.627Z,8.60
2019-05-23T15:53:08.748Z,7.55
2019-05-23T15:58:04.215Z,8.60
2019-05-23T16:02:59.777Z,8.33
2019-05-23T16:07:53.495Z,8.15
2019-05-23T16:12:47.026Z,7.05
2019-05-23T16:17:40.732Z,8.03
2019-05-23T16:22:34.289Z,8.03
2019-05-23T16:27:28.029Z,7.72
2019-05-23T16:32:21.688Z,6.75
2019-05-23T16:37:15.849Z,8.60
2019-05-23T16:42:10.357Z,9.03
2019-05-23T16:47:04.806Z,9.13
2019-05-23T16:51:58.554Z,9.10
2019-05-23T16:57:03.011Z,9.00
2019-05-23T17:02:06.459Z,8.95
2019-05-23T17:07:10.460Z,8.98
2019-05-23T17:12:18.232Z,8.60
2019-05-23T17:17:49.425Z,7.67
2019-05-23T17:22:36.424Z,9.08
2019-05-23T17:27:41.432Z,8.05
2019-05-23T17:32:36.095Z,8.98
2019-05-23T17:37:29.727Z,8.50
2019-05-23T17:42:23.820Z,8.60
2019-05-23T17:47:17.432Z,8.10
2019-05-23T17:52:11.531Z,7.83
2019-05-23T17:57:06.598Z,8.48
2019-05-23T18:02:00.473Z,7.70
2019-05-23T18:06:54.368Z,7.42
2019-05-23T18:11:47.846Z,7.28
2019-05-23T18:16:42.914Z,8.75
2019-05-23T18:21:37.364Z,8.45
2019-05-23T18:26:31.488Z,8.78
2019-05-23T18:31:26.743Z,7.87
2019-05-23T18:36:21.248Z,9.13
2019-05-23T18:41:14.949Z,8.03
2019-05-23T18:46:13.023Z,8.53
2019-05-23T18:51:06.681Z,7.95
2019-05-23T18:56:00.400Z,7.25
2019-05-23T19:00:58.936Z,7.62
2019-05-23T19:05:52.875Z,8.98
2019-05-23T19:10:48.472Z,7.92
2019-05-23T19:15:42.514Z,7.90
2019-05-23T19:20:37.086Z,9.65
2019-05-23T19:25:30.648Z,9.35
2019-05-23T19:30:25.121Z,8.98
2019-05-23T19:35:19.187Z,7.08
2019-05-23T19:40:13.614Z,9.48
2019-05-23T19:45:08.159Z,9.03
2019-05-23T19:50:01.771Z,8.78
2019-05-23T19:54:55.437Z,9.68
2019-05-23T19:59:49.237Z,8.47
2019-05-23T20:04:49.529Z,9.58
2019-05-23T20:09:52.478Z,8.60
2019-05-23T20:14:46.018Z,9.13
2019-05-23T20:19:40.535Z,10.10
2019-05-23T20:24:34.135Z,9.70
2019-05-23T20:29:27.914Z,10.03
2019-05-23T20:34:21.727Z,8.70
2019-05-23T20:39:17.232Z,9.98
2019-05-23T20:44:10.717Z,9.30
2019-05-23T20:49:04.612Z,8.90
2019-05-23T20:53:59.255Z,9.45
2019-05-23T20:58:52.809Z,10.30
2019-05-23T21:03:47.068Z,9.50
2019-05-23T21:08:41.764Z,10.15
2019-05-23T21:13:41.381Z,10.80
2019-05-23T21:18:35.004Z,11.45
2019-05-23T21:23:28.496Z,10.20
2019-05-23T21:28:22.899Z,9.88
2019-05-23T21:33:16.633Z,10.13
2019-05-23T21:38:19.276Z,10.30
2019-05-23T21:43:13.955Z,11.33
2019-05-23T21:48:09.667Z,11.85
2019-05-23T21:53:03.580Z,11.03
2019-05-23T21:58:03.222Z,11.97
2019-05-23T22:02:58.898Z,10.88
2019-05-23T22:07:52.510Z,11.00
2019-05-23T22:13:01.920Z,11.63
2019-05-23T22:17:44.324Z,11.93
2019-05-23T22:22:43.309Z,12.95
2019-05-23T22:27:37.121Z,13.20
2019-05-23T22:32:38.765Z,11.25
2019-05-23T22:37:33.457Z,13.38
2019-05-23T22:42:29.189Z,11.22
2019-05-23T22:47:22.911Z,12.18
2019-05-23T22:52:16.461Z,12.23
2019-05-23T22:57:12.796Z,11.73
2019-05-23T23:02:08.009Z,11.50
2019-05-23T23:07:02.593Z,12.40
2019-05-23T23:11:56.240Z,12.37
2019-05-23T23:16:59.902Z,12.65
2019-05-23T23:21:53.443Z,11.80
2019-05-23T23:26:49.588Z,12.93
2019-05-23T23:31:43.195Z,13.28
2019-05-23T23:36:36.644Z,13.78
2019-05-23T23:41:30.157Z,12.37
2019-05-23T23:46:42.132Z,13.15
2019-05-23T23:57:05.431Z,13.90
